createdAt,value
2023-04-08T00:01:02.844Z,92.90
2023-04-08T00:03:31.026Z,92.90
2023-04-08T00:05:58.362Z,92.80
2023-04-08T00:08:25.458Z,92.90
2023-04-08T00:10:52.596Z,93.20
2023-04-08T00:13:19.697Z,93.20
2023-04-08T00:15:47.058Z,93.00
2023-04-08T00:18:17.784Z,93.00
2023-04-08T00:20:45.294Z,93.10
2023-04-08T00:23:12.492Z,93.10
2023-04-08T00:25:39.595Z,93.00
2023-04-08T00:28:06.894Z,93.00
2023-04-08T00:30:34.016Z,92.90
2023-04-08T00:33:02.090Z,92.70
2023-04-08T00:35:29.347Z,92.80
2023-04-08T00:37:56.464Z,92.60
2023-04-08T00:40:23.609Z,92.70
2023-04-08T00:42:50.655Z,93.10
2023-04-08T00:45:17.757Z,93.40
2023-04-08T00:47:45.093Z,93.50
2023-04-08T00:50:12.467Z,93.30
2023-04-08T00:52:39.715Z,93.40
2023-04-08T00:55:07.436Z,93.70
2023-04-08T00:57:34.788Z,93.60
2023-04-08T01:00:02.241Z,93.60
2023-04-08T01:02:29.503Z,93.80
2023-04-08T01:05:05.704Z,94.00
2023-04-08T01:07:38.404Z,93.70
2023-04-08T01:10:15.875Z,93.50
2023-04-08T01:12:54.244Z,93.20
2023-04-08T01:15:22.522Z,93.40
2023-04-08T01:17:53.402Z,93.40
2023-04-08T01:20:21.221Z,93.40
2023-04-08T01:23:09.360Z,93.40
2023-04-08T01:25:38.345Z,93.40
2023-04-08T01:28:11.648Z,93.40
2023-04-08T01:30:40.839Z,93.50
2023-04-08T01:33:10.699Z,93.40
2023-04-08T01:35:38.432Z,93.30
2023-04-08T01:38:09.245Z,93.40
2023-04-08T01:40:39.329Z,93.50
2023-04-08T01:43:10.100Z,93.80
2023-04-08T01:45:37.199Z,93.80
2023-04-08T01:48:05.953Z,93.70
2023-04-08T01:50:34.005Z,93.90
2023-04-08T01:53:04.547Z,93.80
2023-04-08T01:55:33.527Z,93.70
2023-04-08T01:58:05.953Z,93.70
2023-04-08T02:00:36.173Z,93.60
2023-04-08T02:03:06.195Z,93.70
2023-04-08T02:05:34.577Z,93.70
2023-04-08T02:08:06.940Z,93.70
2023-04-08T02:10:34.058Z,93.70
2023-04-08T02:13:03.550Z,93.70
2023-04-08T02:15:35.349Z,93.80
2023-04-08T02:18:16.848Z,93.70
2023-04-08T02:20:48.081Z,93.80
2023-04-08T02:23:27.873Z,93.80
2023-04-08T02:25:57.021Z,93.70
2023-04-08T02:28:26.116Z,93.90
2023-04-08T02:30:54.906Z,93.80
2023-04-08T02:33:23.538Z,93.70
2023-04-08T02:35:55.056Z,94.00
2023-04-08T02:38:24.390Z,94.20
2023-04-08T02:40:51.815Z,94.20
2023-04-08T02:43:19.015Z,94.20
2023-04-08T02:45:46.669Z,94.40
2023-04-08T02:48:15.248Z,94.30
2023-04-08T02:50:42.392Z,94.50
2023-04-08T02:53:09.944Z,94.60
2023-04-08T02:55:37.095Z,94.60
2023-04-08T02:58:05.628Z,94.60
2023-04-08T03:00:32.782Z,94.60
2023-04-08T03:03:00.420Z,94.80
2023-04-08T03:05:27.852Z,94.60
2023-04-08T03:07:54.990Z,94.90
2023-04-08T03:10:22.107Z,95.00
2023-04-08T03:12:49.340Z,94.90
2023-04-08T03:15:16.491Z,94.50
2023-04-08T03:17:43.783Z,95.00
2023-04-08T03:20:11.612Z,94.90
2023-04-08T03:22:38.772Z,95.00
2023-04-08T03:25:06.634Z,95.10
2023-04-08T03:27:33.771Z,95.20
2023-04-08T03:30:01.257Z,95.70
2023-04-08T03:32:28.514Z,95.80
2023-04-08T03:34:55.679Z,95.60
2023-04-08T03:37:22.891Z,95.90
2023-04-08T03:39:51.623Z,95.90
2023-04-08T03:42:18.820Z,95.50
2023-04-08T03:44:45.869Z,95.70
2023-04-08T03:47:13.070Z,95.60
2023-04-08T03:49:40.264Z,95.70
2023-04-08T03:52:07.577Z,95.70
2023-04-08T03:54:34.619Z,95.70
2023-04-08T03:57:03.177Z,95.50
2023-04-08T03:59:30.395Z,95.40
2023-04-08T04:01:57.539Z,95.50
2023-04-08T04:04:26.035Z,95.50
2023-04-08T04:06:53.274Z,95.40
2023-04-08T04:09:20.579Z,95.30
2023-04-08T04:11:47.677Z,95.30
2023-04-08T04:14:14.979Z,95.20
2023-04-08T04:16:42.184Z,95.20
2023-04-08T04:19:09.277Z,95.30
2023-04-08T04:21:36.424Z,95.10
2023-04-08T04:24:03.674Z,95.10
2023-04-08T04:26:30.779Z,95.20
2023-04-08T04:28:57.886Z,95.40
2023-04-08T04:31:26.755Z,95.40
2023-04-08T04:33:54.759Z,95.30
2023-04-08T04:36:21.990Z,95.20
2023-04-08T04:38:50.642Z,95.10
2023-04-08T04:41:18.234Z,95.20
2023-04-08T04:43:45.426Z,95.40
2023-04-08T04:46:12.566Z,95.40
2023-04-08T04:48:39.833Z,95.30
2023-04-08T04:51:07.881Z,95.40
2023-04-08T04:53:35.099Z,95.20
2023-04-08T04:56:02.925Z,95.20
2023-04-08T04:58:31.042Z,95.10
2023-04-08T05:00:58.179Z,95.00
2023-04-08T05:03:25.389Z,94.90
2023-04-08T05:05:54.028Z,95.00
2023-04-08T05:08:21.884Z,95.00
2023-04-08T05:10:52.080Z,94.80
2023-04-08T05:13:19.540Z,94.80
2023-04-08T05:15:46.995Z,94.90
2023-04-08T05:18:14.492Z,94.80
2023-04-08T05:20:41.578Z,94.60
2023-04-08T05:23:09.129Z,94.40
2023-04-08T05:25:36.648Z,94.00
2023-04-08T05:28:04.467Z,93.90
2023-04-08T05:30:31.719Z,93.70
2023-04-08T05:33:00.568Z,93.40
2023-04-08T05:35:28.852Z,93.00
2023-04-08T05:37:56.328Z,93.00
2023-04-08T05:40:23.536Z,93.20
2023-04-08T05:42:50.638Z,93.30
2023-04-08T05:45:17.788Z,93.50
2023-04-08T05:47:45.076Z,93.60
2023-04-08T05:50:12.554Z,94.00
2023-04-08T05:52:45.008Z,93.90
2023-04-08T05:55:13.302Z,93.40
2023-04-08T05:57:41.120Z,93.40
2023-04-08T06:00:10.302Z,93.60
2023-04-08T06:02:37.759Z,94.30
2023-04-08T06:05:06.056Z,94.70
2023-04-08T06:07:34.321Z,94.80
2023-04-08T06:10:01.672Z,94.90
2023-04-08T06:12:29.215Z,94.90
2023-04-08T06:14:56.851Z,94.80
2023-04-08T06:17:24.133Z,94.70
2023-04-08T06:19:51.387Z,95.10
2023-04-08T06:22:18.415Z,94.00
2023-04-08T06:24:47.932Z,93.50
2023-04-08T06:27:15.592Z,93.60
2023-04-08T06:29:43.224Z,93.60
2023-04-08T06:32:10.900Z,93.60
2023-04-08T06:34:38.405Z,93.70
2023-04-08T06:37:06.620Z,93.10
2023-04-08T06:39:34.182Z,92.80
2023-04-08T06:42:01.854Z,92.80
2023-04-08T06:44:28.999Z,92.70
2023-04-08T06:46:56.377Z,92.50
2023-04-08T06:49:23.629Z,92.60
2023-04-08T06:51:51.280Z,92.50
2023-04-08T06:54:18.378Z,92.00
2023-04-08T06:56:45.742Z,92.00
2023-04-08T06:59:12.831Z,91.90
2023-04-08T07:01:40.202Z,91.30
2023-04-08T07:04:07.475Z,91.20
2023-04-08T07:06:34.716Z,91.20
2023-04-08T07:09:05.679Z,91.20
2023-04-08T07:11:32.793Z,93.20
2023-04-08T07:14:00.101Z,91.50
2023-04-08T07:16:27.502Z,89.90
2023-04-08T07:18:54.685Z,87.10
2023-04-08T07:21:21.718Z,86.50
2023-04-08T07:23:48.853Z,86.20
2023-04-08T07:26:16.030Z,89.80
2023-04-08T07:28:43.385Z,88.00
2023-04-08T07:31:16.617Z,89.90
2023-04-08T07:33:44.597Z,89.40
2023-04-08T07:36:12.922Z,86.40
2023-04-08T07:38:41.153Z,87.50
2023-04-08T07:41:08.403Z,86.20
2023-04-08T07:43:37.530Z,86.80
2023-04-08T07:46:08.142Z,88.30
2023-04-08T07:48:35.940Z,89.10
2023-04-08T07:51:11.103Z,89.50
2023-04-08T07:53:39.711Z,88.00
2023-04-08T07:56:16.535Z,87.10
2023-04-08T07:58:43.957Z,86.90
2023-04-08T08:01:22.693Z,87.10
2023-04-08T08:03:51.265Z,86.90
2023-04-08T08:06:18.870Z,87.20
2023-04-08T08:08:46.008Z,86.90
2023-04-08T08:11:13.441Z,86.40
2023-04-08T08:13:40.729Z,86.90
